Terminal Aerodrome Forecast
Issued by NWS

Home | Current Version | Previous Version | Text Only | Print | Product List | Glossary On
Versions: 1 2 3 4 5 6 7 8 9 10 11 12 13 14 15 16 17 18 19 20
757
FTUS44 KMAF 031511 AAA
TAFINK
TAF AMD
KINK 031511Z 0315/0412 36011KT P6SM BKN012
      TEMPO 0315/0316 4SM -RA BR BKN006
     FM032300 04009KT 4SM -RA BR OVC007
     FM040700 06009KT 2SM -DZ OVC003=

USA.gov is the U.S. government's official web portal to all federal, state and local government web resources and services.